createdAt,value
2023-05-23T00:00:25.025Z,18.38
2023-05-23T00:03:13.271Z,18.36
2023-05-23T00:06:02.373Z,18.32
2023-05-23T00:08:51.526Z,18.26
2023-05-23T00:11:39.086Z,18.22
2023-05-23T00:14:26.839Z,18.21
2023-05-23T00:17:14.543Z,18.20
2023-05-23T00:20:02.731Z,18.13
2023-05-23T00:22:50.339Z,18.15
2023-05-23T00:25:41.526Z,18.12
2023-05-23T00:28:29.287Z,18.13
2023-05-23T00:31:17.786Z,18.11
2023-05-23T00:34:05.538Z,18.13
2023-05-23T00:36:54.238Z,18.11
2023-05-23T00:39:42.124Z,18.04
2023-05-23T00:42:32.665Z,18.00
2023-05-23T00:45:20.252Z,18.01
2023-05-23T00:48:09.122Z,17.93
2023-05-23T00:50:58.385Z,17.89
2023-05-23T00:53:46.825Z,17.87
2023-05-23T00:56:34.376Z,17.90
2023-05-23T00:59:26.014Z,17.90
2023-05-23T01:02:14.404Z,17.86
2023-05-23T01:05:02.607Z,17.81
2023-05-23T01:07:52.074Z,17.75
2023-05-23T01:10:40.356Z,17.77
2023-05-23T01:13:40.771Z,17.74
2023-05-23T01:16:43.389Z,17.67
2023-05-23T01:19:56.633Z,17.64
2023-05-23T01:23:34.060Z,17.57
2023-05-23T01:26:48.290Z,17.51
2023-05-23T01:29:46.079Z,17.46
2023-05-23T01:32:34.345Z,17.40
2023-05-23T01:35:27.586Z,17.40
2023-05-23T01:38:15.130Z,17.40
2023-05-23T01:41:02.753Z,17.41
2023-05-23T01:43:50.755Z,17.35
2023-05-23T01:46:42.129Z,17.36
2023-05-23T01:49:31.793Z,17.40
2023-05-23T01:52:20.216Z,17.37
2023-05-23T01:55:12.187Z,17.28
2023-05-23T01:58:01.776Z,17.24
2023-05-23T02:00:49.851Z,17.16
2023-05-23T02:03:39.390Z,17.09
2023-05-23T02:06:27.100Z,17.13
2023-05-23T02:09:14.660Z,17.09
2023-05-23T02:12:02.395Z,17.09
2023-05-23T02:14:52.230Z,17.02
2023-05-23T02:17:41.358Z,16.95
2023-05-23T02:20:30.382Z,16.90
2023-05-23T02:23:17.980Z,16.87
2023-05-23T02:26:05.740Z,16.81
2023-05-23T02:28:53.290Z,16.80
2023-05-23T02:31:40.744Z,16.84
2023-05-23T02:34:28.628Z,16.81
2023-05-23T02:37:17.802Z,16.80
2023-05-23T02:40:07.592Z,16.74
2023-05-23T02:42:57.308Z,16.78
2023-05-23T02:45:44.991Z,16.75
2023-05-23T02:48:32.298Z,16.70
2023-05-23T02:51:20.569Z,16.68
2023-05-23T02:54:09.599Z,16.66
2023-05-23T02:56:58.571Z,16.75
2023-05-23T02:59:48.719Z,16.72
2023-05-23T03:02:36.499Z,16.69
2023-05-23T03:05:24.431Z,16.63
2023-05-23T03:08:12.091Z,16.65
2023-05-23T03:11:00.765Z,16.67
2023-05-23T03:13:48.517Z,16.66
2023-05-23T03:16:36.077Z,16.69
2023-05-23T03:19:23.801Z,16.73
2023-05-23T03:22:11.374Z,16.71
2023-05-23T03:24:58.811Z,16.70
2023-05-23T03:27:47.725Z,16.66
2023-05-23T03:30:35.718Z,16.66
2023-05-23T03:33:23.362Z,16.62
2023-05-23T03:36:10.898Z,16.63
2023-05-23T03:38:58.410Z,16.62
2023-05-23T03:41:47.355Z,16.58
2023-05-23T03:44:36.268Z,16.57
2023-05-23T03:47:24.974Z,16.60
2023-05-23T03:50:12.964Z,16.57
2023-05-23T03:53:00.881Z,16.59
2023-05-23T03:55:48.313Z,16.61
2023-05-23T03:58:36.059Z,16.59
2023-05-23T04:01:25.104Z,16.58
2023-05-23T04:04:12.837Z,16.57
2023-05-23T04:07:01.613Z,16.59
2023-05-23T04:09:49.140Z,16.65
2023-05-23T04:12:36.740Z,16.67
2023-05-23T04:15:28.024Z,16.67
2023-05-23T04:18:17.649Z,16.63
2023-05-23T04:21:05.453Z,16.65
2023-05-23T04:23:53.114Z,16.71
2023-05-23T04:26:40.548Z,16.70
2023-05-23T04:29:31.550Z,16.73
2023-05-23T04:32:23.090Z,16.70
2023-05-23T04:35:14.304Z,16.70
2023-05-23T04:38:03.968Z,16.70
2023-05-23T04:40:52.644Z,16.67
2023-05-23T04:43:42.586Z,16.66
2023-05-23T04:46:30.344Z,16.67
2023-05-23T04:49:18.276Z,16.71
2023-05-23T04:52:07.530Z,16.76
2023-05-23T04:54:56.126Z,16.78
2023-05-23T04:57:43.830Z,16.80
2023-05-23T05:00:31.522Z,16.83
2023-05-23T05:03:19.718Z,16.82
2023-05-23T05:06:08.204Z,16.84
2023-05-23T05:08:57.110Z,16.87
2023-05-23T05:11:44.944Z,16.93
2023-05-23T05:14:32.655Z,16.98
2023-05-23T05:17:20.235Z,17.03
2023-05-23T05:20:11.355Z,17.05
2023-05-23T05:22:59.488Z,17.08
2023-05-23T05:25:48.926Z,17.10
2023-05-23T05:28:36.709Z,17.11
2023-05-23T05:31:24.152Z,17.17
2023-05-23T05:34:11.817Z,17.21
2023-05-23T05:36:59.447Z,17.26
2023-05-23T05:39:47.177Z,17.32
2023-05-23T05:42:35.987Z,17.39
2023-05-23T05:45:23.747Z,17.45
2023-05-23T05:48:11.870Z,17.54
2023-05-23T05:51:01.319Z,17.64
2023-05-23T05:53:49.652Z,17.73
2023-05-23T05:56:37.182Z,17.84
2023-05-23T05:59:26.210Z,17.98
2023-05-23T06:02:14.177Z,18.12
2023-05-23T06:05:02.070Z,18.28
2023-05-23T06:07:51.257Z,18.51
2023-05-23T06:10:40.243Z,18.67
2023-05-23T06:13:28.524Z,18.84
2023-05-23T06:16:18.007Z,19.00
2023-05-23T06:19:06.230Z,19.16
2023-05-23T06:21:55.272Z,19.33
2023-05-23T06:24:43.187Z,19.51
2023-05-23T06:27:31.059Z,19.75
2023-05-23T06:30:18.917Z,19.93
2023-05-23T06:33:08.264Z,20.09
2023-05-23T06:35:56.009Z,20.30
2023-05-23T06:38:44.228Z,20.45
2023-05-23T06:41:32.059Z,20.60
2023-05-23T06:44:19.769Z,20.77
2023-05-23T06:47:07.762Z,20.96
2023-05-23T06:49:57.092Z,21.07
2023-05-23T06:52:46.787Z,21.18
2023-05-23T06:55:34.916Z,21.28
2023-05-23T06:58:25.162Z,21.37
2023-05-23T07:01:13.289Z,21.36
2023-05-23T07:04:01.110Z,21.40
2023-05-23T07:06:52.710Z,21.43
2023-05-23T07:09:41.092Z,21.49
2023-05-23T07:12:28.580Z,21.60
2023-05-23T07:15:16.318Z,21.73
2023-05-23T07:18:07.307Z,21.70
2023-05-23T07:20:55.235Z,21.67
2023-05-23T07:24:09.527Z,21.65
2023-05-23T07:26:57.233Z,21.65
2023-05-23T07:29:45.493Z,21.63
2023-05-23T07:32:34.291Z,21.64
2023-05-23T07:35:28.660Z,21.64
2023-05-23T07:38:17.418Z,21.67
2023-05-23T07:41:11.684Z,21.71
2023-05-23T07:44:00.197Z,21.64
2023-05-23T07:46:48.049Z,21.60
2023-05-23T07:49:36.403Z,21.57
2023-05-23T07:52:24.084Z,21.67
2023-05-23T07:55:11.939Z,21.78
2023-05-23T07:58:01.592Z,21.79
2023-05-23T08:00:50.402Z,21.81
2023-05-23T08:03:39.494Z,21.76
2023-05-23T08:06:36.234Z,21.83
2023-05-23T08:09:24.596Z,21.95
2023-05-23T08:12:12.674Z,22.09
2023-05-23T08:15:02.001Z,22.10
2023-05-23T08:17:50.298Z,22.09
2023-05-23T08:20:43.856Z,22.27
2023-05-23T08:23:33.679Z,22.44
2023-05-23T08:26:21.927Z,22.45
2023-05-23T08:29:10.764Z,22.46
2023-05-23T08:32:00.013Z,22.51
2023-05-23T08:34:47.953Z,22.59
2023-05-23T08:37:35.712Z,22.60
2023-05-23T08:40:24.376Z,22.73
2023-05-23T08:43:12.513Z,22.77
2023-05-23T08:46:02.739Z,22.73
2023-05-23T08:48:54.868Z,22.63
2023-05-23T08:51:45.024Z,22.57
2023-05-23T08:54:36.670Z,22.53
2023-05-23T08:57:25.824Z,22.60
2023-05-23T09:00:16.664Z,22.74
2023-05-23T09:03:05.054Z,22.78
2023-05-23T09:05:56.071Z,22.74
2023-05-23T09:08:46.053Z,22.80
2023-05-23T09:11:36.276Z,22.95
2023-05-23T09:14:24.634Z,23.08
2023-05-23T09:17:12.296Z,23.20
2023-05-23T09:20:00.651Z,23.54
2023-05-23T09:22:50.628Z,23.67
2023-05-23T09:25:47.794Z,23.69
2023-05-23T09:28:37.822Z,23.73
2023-05-23T09:31:29.330Z,23.54
2023-05-23T09:34:17.573Z,23.75
2023-05-23T09:37:07.298Z,23.75
2023-05-23T09:40:01.696Z,23.70
2023-05-23T09:42:52.641Z,23.96
2023-05-23T09:45:40.986Z,24.14
2023-05-23T09:48:32.293Z,24.32
2023-05-23T09:51:22.203Z,24.48
2023-05-23T09:54:11.046Z,24.49
2023-05-23T09:57:04.413Z,24.52
2023-05-23T09:59:55.355Z,24.61
2023-05-23T10:02:59.533Z,24.58
2023-05-23T10:05:50.255Z,24.51
2023-05-23T10:08:44.237Z,24.52
2023-05-23T10:12:37.999Z,24.51
2023-05-23T10:15:36.355Z,24.68
2023-05-23T10:18:30.430Z,24.90
2023-05-23T10:21:25.555Z,24.93
2023-05-23T10:24:15.327Z,24.91
2023-05-23T10:27:04.060Z,24.92
2023-05-23T10:29:53.616Z,24.85
2023-05-23T10:32:43.638Z,24.82
2023-05-23T10:35:46.371Z,24.80
2023-05-23T10:38:44.407Z,24.83
2023-05-23T10:41:44.400Z,24.96
2023-05-23T10:44:33.316Z,25.10
2023-05-23T10:47:29.668Z,25.04
2023-05-23T10:50:32.831Z,25.16
2023-05-23T10:53:20.538Z,25.41
2023-05-23T10:56:10.555Z,25.42
2023-05-23T10:58:58.922Z,25.50
2023-05-23T11:01:46.744Z,25.49
2023-05-23T11:04:36.174Z,25.41
2023-05-23T11:07:38.615Z,25.40
2023-05-23T11:10:26.084Z,25.20
2023-05-23T11:13:13.749Z,25.15
2023-05-23T11:16:01.423Z,25.19
2023-05-23T11:18:49.392Z,25.26
2023-05-23T11:21:40.044Z,25.38
2023-05-23T11:24:52.725Z,25.38
2023-05-23T11:27:42.466Z,25.40
2023-05-23T11:30:30.589Z,25.38
2023-05-23T11:33:19.044Z,25.37
2023-05-23T11:36:09.753Z,25.20
2023-05-23T11:39:04.020Z,25.08
2023-05-23T11:42:09.913Z,24.85
2023-05-23T11:44:58.085Z,24.77
2023-05-23T11:47:46.139Z,24.68
2023-05-23T11:50:35.159Z,24.64
2023-05-23T11:53:25.797Z,24.58
2023-05-23T11:56:17.265Z,24.62
2023-05-23T11:59:04.956Z,24.66
2023-05-23T12:01:52.955Z,24.62
2023-05-23T12:04:41.274Z,24.57
2023-05-23T12:07:29.102Z,24.55
2023-05-23T12:10:21.886Z,24.46
2023-05-23T12:13:11.353Z,24.24
2023-05-23T12:16:02.589Z,24.08
2023-05-23T12:18:50.819Z,23.92
2023-05-23T12:21:47.389Z,23.75
2023-05-23T12:24:34.913Z,23.62
2023-05-23T12:27:31.472Z,23.57
2023-05-23T12:30:20.910Z,23.44
2023-05-23T12:33:10.641Z,23.28
2023-05-23T12:35:59.098Z,23.18
2023-05-23T12:38:47.131Z,22.97
2023-05-23T12:41:35.180Z,22.79
2023-05-23T12:44:23.456Z,22.75
2023-05-23T12:47:13.305Z,22.66
2023-05-23T12:50:01.768Z,22.63
2023-05-23T12:52:49.894Z,22.63
2023-05-23T12:55:39.461Z,22.61
2023-05-23T12:58:31.438Z,22.66
2023-05-23T13:01:19.304Z,22.56
2023-05-23T13:04:08.770Z,22.59
2023-05-23T13:06:56.989Z,22.58
2023-05-23T13:09:45.018Z,22.55
2023-05-23T13:12:36.103Z,22.58
2023-05-23T13:15:24.642Z,22.57
2023-05-23T13:18:12.215Z,22.48
2023-05-23T13:21:01.663Z,22.50
2023-05-23T13:23:50.569Z,22.48
2023-05-23T13:26:38.597Z,22.62
2023-05-23T13:29:26.852Z,22.72
2023-05-23T13:32:14.476Z,22.96
2023-05-23T13:35:02.422Z,23.13
2023-05-23T13:37:51.265Z,22.95
2023-05-23T13:40:38.904Z,22.87
2023-05-23T13:43:27.057Z,22.85
2023-05-23T13:46:15.052Z,22.81
2023-05-23T13:49:02.818Z,22.77
2023-05-23T13:51:51.145Z,22.79
2023-05-23T13:54:41.574Z,22.71
2023-05-23T13:57:30.183Z,22.63
2023-05-23T14:00:18.749Z,22.60
2023-05-23T14:03:06.733Z,22.60
2023-05-23T14:05:54.274Z,22.61
2023-05-23T14:08:42.361Z,22.48
2023-05-23T14:11:31.515Z,22.47
2023-05-23T14:14:19.568Z,22.48
2023-05-23T14:17:07.523Z,22.47
2023-05-23T14:19:55.315Z,22.49
2023-05-23T14:22:45.461Z,22.50
2023-05-23T14:25:33.316Z,22.52
2023-05-23T14:28:22.349Z,22.52
2023-05-23T14:31:10.606Z,22.49
2023-05-23T14:33:58.968Z,22.36
2023-05-23T14:36:47.267Z,22.40
2023-05-23T14:39:36.036Z,22.42
2023-05-23T14:42:23.878Z,22.44
2023-05-23T14:45:13.925Z,22.45
2023-05-23T14:48:02.842Z,22.53
2023-05-23T14:50:50.919Z,22.60
2023-05-23T14:53:38.563Z,22.91
2023-05-23T14:56:27.062Z,23.09
2023-05-23T14:59:15.221Z,23.14
2023-05-23T15:02:05.062Z,23.13
2023-05-23T15:04:53.158Z,23.06
2023-05-23T15:07:40.713Z,22.96
2023-05-23T15:10:28.133Z,22.89
2023-05-23T15:13:16.073Z,22.99
2023-05-23T15:16:04.384Z,22.96
2023-05-23T15:18:53.230Z,22.99
2023-05-23T15:21:49.597Z,23.09
2023-05-23T15:24:40.772Z,23.06
2023-05-23T15:27:28.890Z,22.95
2023-05-23T15:30:16.650Z,23.02
2023-05-23T15:33:05.508Z,23.07
2023-05-23T15:35:54.858Z,23.13
2023-05-23T15:38:43.833Z,23.00
2023-05-23T15:41:36.962Z,22.89
2023-05-23T15:44:29.360Z,22.81
2023-05-23T15:47:18.798Z,22.71
2023-05-23T15:50:08.262Z,22.60
2023-05-23T15:52:57.373Z,22.39
2023-05-23T15:55:45.194Z,22.21
2023-05-23T15:58:32.812Z,22.01
2023-05-23T16:01:20.639Z,21.77
2023-05-23T16:04:08.238Z,21.52
2023-05-23T16:06:55.856Z,21.43
2023-05-23T16:09:44.666Z,21.25
2023-05-23T16:12:32.488Z,21.13
2023-05-23T16:15:20.742Z,21.04
2023-05-23T16:18:08.775Z,20.95
2023-05-23T16:20:57.121Z,20.85
2023-05-23T16:23:45.865Z,20.78
2023-05-23T16:26:35.236Z,20.66
2023-05-23T16:29:23.285Z,20.53
2023-05-23T16:32:12.536Z,20.50
2023-05-23T16:35:00.244Z,20.44
2023-05-23T16:37:48.780Z,20.38
2023-05-23T16:40:36.861Z,20.30
2023-05-23T16:43:27.379Z,20.30
2023-05-23T16:46:16.392Z,20.15
2023-05-23T16:49:05.788Z,20.10
2023-05-23T16:51:54.013Z,20.08
2023-05-23T16:54:41.911Z,19.94
2023-05-23T16:57:29.520Z,19.84
2023-05-23T17:00:20.683Z,19.86
2023-05-23T17:03:09.113Z,19.72
2023-05-23T17:05:59.993Z,19.75
2023-05-23T17:08:47.856Z,19.64
2023-05-23T17:11:35.652Z,19.61
2023-05-23T17:14:24.271Z,19.55
2023-05-23T17:17:13.827Z,19.43
2023-05-23T17:20:05.379Z,19.36
2023-05-23T17:22:53.386Z,19.20
2023-05-23T17:25:41.079Z,19.19
2023-05-23T17:28:28.724Z,19.09
2023-05-23T17:31:18.410Z,19.02
2023-05-23T17:34:07.636Z,18.95
2023-05-23T17:36:55.731Z,18.92
2023-05-23T17:39:43.430Z,18.84
2023-05-23T17:42:31.262Z,18.72
2023-05-23T17:45:18.916Z,18.61
2023-05-23T17:48:07.518Z,18.50
2023-05-23T17:50:56.552Z,18.45
2023-05-23T17:53:44.221Z,18.33
2023-05-23T17:56:32.181Z,18.32
2023-05-23T17:59:19.934Z,18.22
2023-05-23T18:02:09.303Z,18.16
2023-05-23T18:04:57.463Z,18.11
2023-05-23T18:07:47.052Z,18.02
2023-05-23T18:10:34.763Z,18.00
2023-05-23T18:13:22.433Z,17.87
2023-05-23T18:16:09.898Z,17.82
2023-05-23T18:18:58.893Z,17.77
2023-05-23T18:21:46.531Z,17.77
2023-05-23T18:24:36.099Z,17.80
2023-05-23T18:27:24.101Z,17.72
2023-05-23T18:30:12.699Z,17.71
2023-05-23T18:33:01.020Z,17.61
2023-05-23T18:35:51.075Z,17.56
2023-05-23T18:38:42.202Z,17.52
2023-05-23T18:41:32.913Z,17.37
2023-05-23T18:44:23.246Z,17.31
2023-05-23T18:47:12.181Z,17.26
2023-05-23T18:50:00.448Z,17.20
2023-05-23T18:52:51.362Z,17.16
2023-05-23T18:55:39.145Z,17.17
2023-05-23T18:58:28.468Z,17.10
2023-05-23T19:01:16.683Z,17.06
2023-05-23T19:04:04.582Z,17.01
2023-05-23T19:06:52.875Z,17.01
2023-05-23T19:09:40.544Z,16.95
2023-05-23T19:12:28.455Z,16.86
2023-05-23T19:15:20.530Z,16.76
2023-05-23T19:18:09.334Z,16.73
2023-05-23T19:20:57.731Z,16.66
2023-05-23T19:23:46.384Z,16.59
2023-05-23T19:26:36.445Z,16.52
2023-05-23T19:29:26.029Z,16.54
2023-05-23T19:32:15.387Z,16.55
2023-05-23T19:35:05.810Z,16.49
2023-05-23T19:37:53.503Z,16.47
2023-05-23T19:40:48.069Z,16.38
2023-05-23T19:43:36.627Z,16.32
2023-05-23T19:46:25.121Z,16.32
2023-05-23T19:49:17.413Z,16.26
2023-05-23T19:52:06.161Z,16.22
2023-05-23T19:54:54.084Z,16.20
2023-05-23T19:57:41.864Z,16.08
2023-05-23T20:00:30.171Z,16.00
2023-05-23T20:03:18.429Z,15.95
2023-05-23T20:06:13.561Z,16.05
2023-05-23T20:09:03.442Z,15.95
2023-05-23T20:11:51.615Z,15.87
2023-05-23T20:14:39.556Z,15.79
2023-05-23T20:17:27.338Z,15.79
2023-05-23T20:20:15.492Z,15.78
2023-05-23T20:23:05.537Z,15.77
2023-05-23T20:25:54.042Z,15.70
2023-05-23T20:28:41.859Z,15.63
2023-05-23T20:31:32.153Z,15.46
2023-05-23T20:34:22.926Z,15.50
2023-05-23T20:37:13.610Z,15.42
2023-05-23T20:40:03.459Z,15.39
2023-05-23T20:42:51.767Z,15.34
2023-05-23T20:45:39.693Z,15.25
2023-05-23T20:48:29.021Z,15.27
2023-05-23T20:51:16.974Z,15.18
2023-05-23T20:54:05.432Z,15.23
2023-05-23T20:56:54.515Z,15.26
2023-05-23T20:59:42.255Z,15.18
2023-05-23T21:02:30.209Z,15.10
2023-05-23T21:05:18.585Z,15.01
2023-05-23T21:08:07.027Z,15.00
2023-05-23T21:10:55.219Z,15.04
2023-05-23T21:13:46.016Z,15.00
2023-05-23T21:16:37.556Z,14.92
2023-05-23T21:19:25.288Z,14.89
2023-05-23T21:22:13.091Z,14.86
2023-05-23T21:25:01.469Z,14.82
2023-05-23T21:27:49.042Z,14.76
2023-05-23T21:30:38.897Z,14.62
2023-05-23T21:33:27.043Z,14.60
2023-05-23T21:36:14.701Z,14.55
2023-05-23T21:39:03.411Z,14.63
2023-05-23T21:41:51.138Z,14.50
2023-05-23T21:44:40.802Z,14.45
2023-05-23T21:47:30.336Z,14.41
2023-05-23T21:50:18.509Z,14.35
2023-05-23T21:53:06.433Z,14.26
2023-05-23T21:55:53.963Z,14.26
2023-05-23T21:58:41.487Z,14.32
2023-05-23T22:01:29.023Z,14.29
2023-05-23T22:04:20.167Z,14.28
2023-05-23T22:07:07.786Z,14.30
2023-05-23T22:09:56.285Z,14.32
2023-05-23T22:12:44.033Z,14.19
2023-05-23T22:15:32.508Z,14.16
2023-05-23T22:18:20.029Z,14.12
2023-05-23T22:21:09.395Z,14.07
2023-05-23T22:23:57.911Z,14.02
2023-05-23T22:26:45.825Z,14.02
2023-05-23T22:29:33.710Z,13.95
2023-05-23T22:32:21.401Z,13.92
2023-05-23T22:35:10.451Z,13.88
2023-05-23T22:37:59.737Z,13.90
2023-05-23T22:40:47.942Z,13.85
2023-05-23T22:43:35.483Z,13.93
2023-05-23T22:46:23.023Z,13.85
2023-05-23T22:49:10.898Z,13.83
2023-05-23T22:51:59.282Z,13.78
2023-05-23T22:54:48.377Z,13.70
2023-05-23T22:57:36.230Z,13.64
2023-05-23T23:00:24.143Z,13.62
2023-05-23T23:03:12.863Z,13.57
2023-05-23T23:06:01.731Z,13.53
2023-05-23T23:08:49.873Z,13.50
2023-05-23T23:11:39.404Z,13.46
2023-05-23T23:14:27.325Z,13.43
2023-05-23T23:17:14.921Z,13.40
2023-05-23T23:20:04.192Z,13.38
2023-05-23T23:22:51.984Z,13.33
2023-05-23T23:25:40.205Z,13.21
2023-05-23T23:28:29.035Z,13.11
2023-05-23T23:31:16.719Z,13.10
2023-05-23T23:34:04.813Z,13.05
2023-05-23T23:36:52.653Z,12.99
2023-05-23T23:39:41.376Z,12.94
2023-05-23T23:42:33.850Z,12.86
2023-05-23T23:45:23.037Z,12.80
2023-05-23T23:48:10.904Z,12.77
2023-05-23T23:50:59.247Z,12.77
2023-05-23T23:53:49.273Z,12.75
2023-05-23T23:56:38.693Z,12.71
2023-05-23T23:59:26.821Z,12.68
